EGHI

Details ICAO EGHI (SOU)
Name Southampton
Region United Kingdom
Timezone Europe/London (UTC+1.0)
Plans Departing 1035
Arriving 727
Stats Elevation 41 ft / 12 m (AMSL)
Location 50.950300° -1.356790°
Runways 1
Magnetic Variation 0.591° W
Sunrise 2019-06-20 03:52:07 UTC / 2019-06-20 04:52:07 Local
Sunset 2019-06-20 20:24:14 UTC / 2019-06-20 21:24:14 Local
Advertisement - Login to hide

Runways

ID Width Length Bearing (true/mag) Surface Threshold Overrun Markings Lighting
02 121 ft / 37 m 5,651 ft / 1,722 m 19.36° / 19.95° ASPHALT 239 ft / 73 m 66 ft / 20 m UK-PREC-APP CENTERLINE EDGE THRESHOLD MALS
20 121 ft / 37 m 5,651 ft / 1,722 m 199.36° / 199.95° ASPHALT 151 ft / 46 m 0 ft / 0 m UK-PREC-APP CENTERLINE EDGE THRESHOLD MALS

Approach Navaids

Runway Type Ident Frequency Range Bearing (true/mag) Slope Elevation
20 DME ISN 110.75 MHz 18 nm / 33 km - - 54 ft / 16 m (AMSL)
20 LOC-ILS ISN 110.75 MHz 18 nm / 33 km 199.35° / 199.94° - 41 ft / 12 m (AMSL)
20 GS ISN 110.75 MHz 18 nm / 33 km 199.35° / 199.94° 3.10° 41 ft / 12 m (AMSL)

Map

Weather


0- 5 10 15 20 25 30 35+ Temperature / °C

Clouds and Precipitation
Forecast for 2019-06-12 12:00 UTC. Updated 8 days ago

Ground ~20,000 ft ~40,000 ft Winds

METAR

EGHI 201450Z VRB02KT 9999 SCT030 14/10 Q1015

TAF

Not found

Frequencies

Tower 118.35 MHz Southampton Info
Tower 118.20 MHz Southampton Tower
Warning: Do not use this data for real-world aviation or navigation. No guarantee of current accuracy is given.